Time;durP1;ratioP1;P1;durP2;ratioP2;P2;SDS_P1;SDS_P2;PMS_P1;PMS_P2;Temp;Humidity;BMP_temperature;BMP_pressure;BME280_temperature;BME280_humidity;BME280_pressure;Samples;Min_cycle;Max_cycle;Signal;HPM_P1;HPM_P2
2022/02/12 00:02:17;0.00;0.00;0.62;0.00;0.00;0.62;4.80;1.60;;;21.90;26.90;;;;;;2248969;61;20404;-59
2022/02/12 00:05:02;0.00;0.00;0.62;0.00;0.00;0.62;2.63;1.57;;;21.90;26.80;;;;;;2248973;61;20408;-59
2022/02/12 00:07:47;0.00;0.00;0.62;0.00;0.00;0.62;2.10;1.50;;;21.90;26.80;;;;;;2288282;58;20385;-60
2022/02/12 00:10:33;0.00;0.00;0.62;0.00;0.00;0.62;2.50;1.80;;;21.90;26.70;;;;;;2549760;46;20373;-61
2022/02/12 00:13:17;0.00;0.00;0.62;0.00;0.00;0.62;3.13;1.80;;;21.90;26.70;;;;;;2248880;61;20372;-60
2022/02/12 00:16:02;0.00;0.00;0.62;0.00;0.00;0.62;2.30;1.43;;;21.90;26.70;;;;;;2249978;61;20759;-60
2022/02/12 00:18:47;0.00;0.00;0.62;0.00;0.00;0.62;2.80;1.80;;;21.90;26.70;;;;;;2251792;61;20388;-58
2022/02/12 00:21:31;0.00;0.00;0.62;0.00;0.00;0.62;4.13;1.87;;;21.90;26.70;;;;;;2249120;61;20367;-60
2022/02/12 00:24:16;0.00;0.00;0.62;0.00;0.00;0.62;4.60;1.90;;;21.90;26.60;;;;;;2249906;61;20576;-60
2022/02/12 00:27:02;0.00;0.00;0.62;0.00;0.00;0.62;2.90;1.83;;;21.90;26.50;;;;;;2249156;61;20417;-60
2022/02/12 00:29:46;0.00;0.00;0.62;0.00;0.00;0.62;2.60;1.80;;;21.80;26.40;;;;;;2249661;61;20549;-60
2022/02/12 00:32:31;0.00;0.00;0.62;0.00;0.00;0.62;3.80;2.10;;;21.80;26.30;;;;;;2249608;61;20713;-61
2022/02/12 00:35:15;0.00;0.00;0.62;0.00;0.00;0.62;3.00;1.93;;;21.80;26.20;;;;;;2248973;61;20412;-60
2022/02/12 00:38:00;0.00;0.00;0.62;0.00;0.00;0.62;3.33;2.33;;;21.80;26.10;;;;;;2249743;61;20400;-61
2022/02/12 00:40:44;0.00;0.00;0.62;0.00;0.00;0.62;4.53;2.47;;;21.80;26.10;;;;;;2249533;61;20357;-60
2022/02/12 00:43:31;0.00;0.00;0.62;0.00;0.00;0.62;3.80;2.70;;;21.70;25.90;;;;;;2251232;61;20371;-60
2022/02/12 00:46:16;0.00;0.00;0.62;0.00;0.00;0.62;2.93;2.33;;;21.70;25.90;;;;;;2249897;61;20621;-60
2022/02/12 00:49:00;0.00;0.00;0.62;0.00;0.00;0.62;4.40;3.00;;;21.70;25.80;;;;;;2249652;61;20453;-59
2022/02/12 00:51:45;0.00;0.00;0.62;0.00;0.00;0.62;5.33;2.70;;;21.60;25.70;;;;;;2249666;61;20404;-61
2022/02/12 00:54:32;0.00;0.00;0.62;0.00;0.00;0.62;4.70;2.60;;;21.60;25.70;;;;;;2249570;61;20368;-60
2022/02/12 00:57:17;0.00;0.00;0.62;0.00;0.00;0.62;3.27;2.37;;;21.60;25.60;;;;;;2248863;61;20437;-60
2022/02/12 01:00:04;0.00;0.00;0.62;0.00;0.00;0.62;4.90;2.90;;;21.50;25.50;;;;;;2249738;61;20388;-60
2022/02/12 01:02:49;0.00;0.00;0.62;0.00;0.00;0.62;3.93;2.80;;;21.50;25.50;;;;;;2249897;61;20387;-62
2022/02/12 01:05:34;0.00;0.00;0.62;0.00;0.00;0.62;4.77;2.70;;;21.40;25.50;;;;;;2248905;61;20396;-61
2022/02/12 01:08:18;0.00;0.00;0.62;0.00;0.00;0.62;4.63;2.57;;;21.40;25.40;;;;;;2249775;61;20627;-60
2022/02/12 01:11:04;0.00;0.00;0.62;0.00;0.00;0.62;3.90;2.83;;;21.40;25.40;;;;;;2249610;61;20360;-60
2022/02/12 01:13:48;0.00;0.00;0.62;0.00;0.00;0.62;4.70;2.57;;;21.40;25.40;;;;;;2249476;61;20705;-60
2022/02/12 01:16:34;0.00;0.00;0.62;0.00;0.00;0.62;4.00;2.77;;;21.30;25.30;;;;;;2249632;61;20400;-60
2022/02/12 01:19:18;0.00;0.00;0.62;0.00;0.00;0.62;3.40;2.67;;;21.30;25.20;;;;;;2249009;61;20864;-60
2022/02/12 01:22:03;0.00;0.00;0.62;0.00;0.00;0.62;5.10;3.43;;;21.30;25.20;;;;;;2249782;61;20581;-60
2022/02/12 01:24:49;0.00;0.00;0.62;0.00;0.00;0.62;3.50;2.60;;;21.20;25.10;;;;;;2249621;61;20353;-60
2022/02/12 01:27:35;0.00;0.00;0.62;0.00;0.00;0.62;5.27;3.70;;;21.20;25.20;;;;;;2248719;61;20365;-60
2022/02/12 01:30:20;0.00;0.00;0.62;0.00;0.00;0.62;4.33;3.30;;;21.20;25.20;;;;;;2249761;61;20372;-60
2022/02/12 01:33:06;0.00;0.00;0.62;0.00;0.00;0.62;4.03;2.60;;;21.10;25.10;;;;;;2249506;61;20392;-60
2022/02/12 01:35:50;0.00;0.00;0.62;0.00;0.00;0.62;3.93;2.90;;;21.10;25.10;;;;;;2249029;61;20487;-60
2022/02/12 01:38:35;0.00;0.00;0.62;0.00;0.00;0.62;5.50;2.80;;;21.00;25.10;;;;;;2249379;61;20455;-59
2022/02/12 01:41:20;0.00;0.00;0.62;0.00;0.00;0.62;5.47;3.00;;;21.00;25.00;;;;;;2248896;61;20740;-58
2022/02/12 01:44:09;0.00;0.00;0.62;0.00;0.00;0.62;4.53;3.13;;;21.00;25.10;;;;;;2249462;61;20732;-60
2022/02/12 01:46:54;0.00;0.00;0.62;0.00;0.00;0.62;4.63;3.00;;;20.90;25.00;;;;;;2249554;61;20584;-60
2022/02/12 01:49:41;0.00;0.00;0.62;0.00;0.00;0.62;5.10;3.00;;;20.90;25.00;;;;;;2248542;61;20384;-60
2022/02/12 01:52:29;0.00;0.00;0.62;0.00;0.00;0.62;7.43;3.77;;;20.80;25.00;;;;;;2249773;61;20802;-61
2022/02/12 01:55:14;0.00;0.00;0.62;0.00;0.00;0.62;5.03;2.80;;;20.80;25.00;;;;;;2249423;61;20764;-60
2022/02/12 01:57:58;0.00;0.00;0.62;0.00;0.00;0.62;5.30;3.57;;;20.80;25.00;;;;;;2248582;61;20381;-61
2022/02/12 02:00:43;0.00;0.00;0.62;0.00;0.00;0.62;4.80;2.73;;;20.80;25.00;;;;;;2249345;61;20379;-59
2022/02/12 02:03:27;0.00;0.00;0.62;0.00;0.00;0.62;4.87;3.00;;;20.80;25.00;;;;;;2251221;61;20814;-61
2022/02/12 02:06:13;0.00;0.00;0.62;0.00;0.00;0.62;4.63;3.40;;;20.70;24.90;;;;;;2249368;61;20623;-59
2022/02/12 02:08:59;0.00;0.00;0.62;0.00;0.00;0.62;3.90;2.57;;;20.70;24.90;;;;;;2249378;61;20424;-60
2022/02/12 02:11:44;0.00;0.00;0.62;0.00;0.00;0.62;3.97;3.00;;;20.70;24.90;;;;;;2248593;61;20369;-58
2022/02/12 02:14:34;0.00;0.00;0.62;0.00;0.00;0.62;5.70;3.03;;;20.60;24.80;;;;;;2249565;61;20745;-59
2022/02/12 02:17:18;0.00;0.00;0.62;0.00;0.00;0.62;4.33;2.97;;;20.60;24.80;;;;;;2249387;61;21285;-61
2022/02/12 02:20:06;0.00;0.00;0.62;0.00;0.00;0.62;4.87;2.90;;;20.50;24.70;;;;;;2248840;61;20756;-61
2022/02/12 02:22:54;0.00;0.00;0.62;0.00;0.00;0.62;6.10;2.80;;;20.50;24.70;;;;;;2249305;61;20368;-59
2022/02/12 02:25:39;0.00;0.00;0.62;0.00;0.00;0.62;4.60;3.10;;;20.50;24.80;;;;;;2251236;61;20832;-58
2022/02/12 02:28:24;0.00;0.00;0.62;0.00;0.00;0.62;5.10;2.87;;;20.40;24.70;;;;;;2249362;61;20443;-60
2022/02/12 02:31:09;0.00;0.00;0.62;0.00;0.00;0.62;4.03;2.10;;;20.40;24.70;;;;;;2249168;61;20372;-59
2022/02/12 02:33:53;0.00;0.00;0.62;0.00;0.00;0.62;3.13;2.37;;;20.40;24.80;;;;;;2248497;61;20434;-60
2022/02/12 02:36:38;0.00;0.00;0.62;0.00;0.00;0.62;3.93;2.70;;;20.30;24.70;;;;;;2249611;61;20361;-60
2022/02/12 02:39:24;0.00;0.00;0.62;0.00;0.00;0.62;4.70;3.20;;;20.30;24.70;;;;;;2251411;61;20455;-60
2022/02/12 02:42:09;0.00;0.00;0.62;0.00;0.00;0.62;4.03;2.20;;;20.30;24.80;;;;;;2248776;61;20493;-60
2022/02/12 02:44:53;0.00;0.00;0.62;0.00;0.00;0.62;3.20;2.73;;;20.30;24.70;;;;;;2249651;61;20388;-60
2022/02/12 02:47:42;0.00;0.00;0.62;0.00;0.00;0.62;4.57;2.60;;;20.20;24.70;;;;;;2248954;61;20364;-60
2022/02/12 02:56:38;0.00;0.00;0.62;0.00;0.00;0.62;4.13;2.37;;;20.20;24.70;;;;;;2248973;61;20384;-59
2022/02/12 02:59:23;0.00;0.00;0.62;0.00;0.00;0.62;4.90;2.43;;;20.10;24.60;;;;;;2250023;61;20475;-60
2022/02/12 03:02:08;0.00;0.00;0.62;0.00;0.00;0.62;4.03;2.63;;;20.10;24.60;;;;;;2250227;61;20361;-60
2022/02/12 03:04:52;0.00;0.00;0.62;0.00;0.00;0.62;5.23;2.73;;;20.10;24.60;;;;;;2249937;61;20388;-60
2022/02/12 03:07:38;0.00;0.00;0.62;0.00;0.00;0.62;4.83;2.20;;;20.10;24.60;;;;;;2249887;61;20365;-60
2022/02/12 03:10:22;0.00;0.00;0.62;0.00;0.00;0.62;6.37;2.63;;;20.10;24.60;;;;;;2249443;61;20349;-60
2022/02/12 03:13:08;0.00;0.00;0.62;0.00;0.00;0.62;4.17;2.13;;;20.10;24.60;;;;;;2250199;61;20372;-60
2022/02/12 03:15:53;0.00;0.00;0.62;0.00;0.00;0.62;4.70;2.50;;;20.00;24.50;;;;;;2249959;61;20440;-60
2022/02/12 03:18:39;0.00;0.00;0.62;0.00;0.00;0.62;3.23;2.30;;;20.00;24.50;;;;;;2249133;61;20792;-60
2022/02/12 03:21:24;0.00;0.00;0.62;0.00;0.00;0.62;5.63;2.60;;;20.00;24.50;;;;;;2250302;61;21012;-60
2022/02/12 03:24:09;0.00;0.00;0.62;0.00;0.00;0.62;4.33;3.00;;;20.00;24.50;;;;;;2250083;61;20396;-60
2022/02/12 03:26:54;0.00;0.00;0.62;0.00;0.00;0.62;3.20;2.00;;;20.00;24.50;;;;;;2249848;61;20568;-60
2022/02/12 03:29:39;0.00;0.00;0.62;0.00;0.00;0.62;5.10;2.13;;;20.00;25.10;;;;;;2249745;61;20707;-60
2022/02/12 03:32:24;0.00;0.00;0.62;0.00;0.00;0.62;3.57;2.30;;;19.90;24.50;;;;;;2249535;61;20473;-61
2022/02/12 03:35:09;0.00;0.00;0.62;0.00;0.00;0.62;4.53;2.30;;;19.90;24.50;;;;;;2250177;61;20364;-60
2022/02/12 03:38:04;0.00;0.00;0.62;0.00;0.00;0.62;4.20;2.23;;;19.90;24.50;;;;;;2249614;61;20380;-59
2022/02/12 03:40:54;0.00;0.00;0.62;0.00;0.00;0.62;3.57;2.50;;;19.90;24.50;;;;;;2249206;61;20405;-59
2022/02/12 03:43:38;0.00;0.00;0.62;0.00;0.00;0.62;3.67;2.63;;;19.90;24.50;;;;;;2250122;61;20478;-61
2022/02/12 03:46:24;0.00;0.00;0.62;0.00;0.00;0.62;4.20;2.20;;;19.80;24.50;;;;;;2249865;61;20392;-60
2022/02/12 03:49:09;0.00;0.00;0.62;0.00;0.00;0.62;3.70;2.20;;;19.80;24.50;;;;;;2249575;61;20505;-60
2022/02/12 03:51:54;0.00;0.00;0.62;0.00;0.00;0.62;3.60;2.30;;;19.80;24.50;;;;;;2249871;61;20384;-60
2022/02/12 03:54:39;0.00;0.00;0.62;0.00;0.00;0.62;4.13;2.00;;;19.70;24.40;;;;;;2249210;61;20813;-60
2022/02/12 03:57:23;0.00;0.00;0.62;0.00;0.00;0.62;4.37;2.70;;;19.70;24.40;;;;;;2250081;61;20412;-60
2022/02/12 04:00:13;0.00;0.00;0.62;0.00;0.00;0.62;4.40;1.90;;;19.70;24.50;;;;;;2252074;61;20436;-60
2022/02/12 04:02:59;0.00;0.00;0.62;0.00;0.00;0.62;3.73;2.30;;;19.70;24.50;;;;;;2249123;61;20372;-60
2022/02/12 04:05:45;0.00;0.00;0.62;0.00;0.00;0.62;4.00;2.80;;;19.70;24.50;;;;;;2250067;61;20461;-60
2022/02/12 04:08:29;0.00;0.00;0.62;0.00;0.00;0.62;4.23;2.37;;;19.70;24.50;;;;;;2249740;61;20797;-61
2022/02/12 04:11:14;0.00;0.00;0.62;0.00;0.00;0.62;6.83;2.70;;;19.60;24.40;;;;;;2249030;61;20739;-60
2022/02/12 04:13:59;0.00;0.00;0.62;0.00;0.00;0.62;3.80;2.00;;;19.60;24.40;;;;;;2249789;61;20392;-60
2022/02/12 04:16:44;0.00;0.00;0.62;0.00;0.00;0.62;3.23;2.03;;;19.60;24.40;;;;;;2249307;61;20368;-60
2022/02/12 04:19:30;0.00;0.00;0.62;0.00;0.00;0.62;4.47;2.50;;;19.60;24.40;;;;;;2249813;61;20408;-60
2022/02/12 04:22:15;0.00;0.00;0.62;0.00;0.00;0.62;5.80;2.80;;;19.60;24.50;;;;;;2249818;61;20364;-58
2022/02/12 04:25:01;0.00;0.00;0.62;0.00;0.00;0.62;4.03;2.40;;;19.50;24.40;;;;;;2249110;61;20705;-59
2022/02/12 04:27:46;0.00;0.00;0.62;0.00;0.00;0.62;3.13;2.20;;;19.50;24.40;;;;;;2249743;61;20409;-60
2022/02/12 04:30:13;0.00;0.00;0.62;0.00;0.00;0.62;4.03;2.20;;;19.50;24.40;;;;;;2249740;61;20350;-58
2022/02/12 04:32:58;0.00;0.00;0.62;0.00;0.00;0.62;4.10;2.40;;;19.40;24.40;;;;;;2249193;61;20408;-58
2022/02/12 04:35:48;0.00;0.00;0.62;0.00;0.00;0.62;3.17;2.53;;;19.40;24.40;;;;;;2250030;61;20392;-58
2022/02/12 04:38:33;0.00;0.00;0.62;0.00;0.00;0.62;5.33;2.50;;;19.40;24.40;;;;;;2249177;61;20400;-59
2022/02/12 04:41:18;0.00;0.00;0.62;0.00;0.00;0.62;4.30;2.33;;;19.40;24.40;;;;;;2249717;61;20440;-60
2022/02/12 04:44:04;0.00;0.00;0.62;0.00;0.00;0.62;2.30;1.90;;;19.40;24.40;;;;;;2249778;61;20365;-60
2022/02/12 04:46:48;0.00;0.00;0.62;0.00;0.00;0.62;4.60;2.50;;;19.30;24.40;;;;;;2249122;61;20364;-60
2022/02/12 04:49:33;0.00;0.00;0.62;0.00;0.00;0.62;4.50;2.23;;;19.30;24.40;;;;;;2249792;61;20760;-60
2022/02/12 04:52:21;0.00;0.00;0.62;0.00;0.00;0.62;7.60;2.70;;;19.30;24.40;;;;;;2249615;61;20613;-60
2022/02/12 04:55:06;0.00;0.00;0.62;0.00;0.00;0.62;4.33;2.43;;;19.30;24.40;;;;;;2248776;61;20617;-60
2022/02/12 04:57:51;0.00;0.00;0.62;0.00;0.00;0.62;4.00;2.27;;;19.30;24.40;;;;;;2249852;61;20408;-60
2022/02/12 05:00:35;0.00;0.00;0.62;0.00;0.00;0.62;4.60;2.50;;;19.20;24.40;;;;;;2249813;61;20438;-60
2022/02/12 05:03:20;0.00;0.00;0.62;0.00;0.00;0.62;3.53;2.10;;;19.20;24.40;;;;;;2249409;61;20360;-60
2022/02/12 05:06:04;0.00;0.00;0.62;0.00;0.00;0.62;4.87;2.40;;;19.20;24.40;;;;;;2249656;61;20578;-60
2022/02/12 05:08:50;0.00;0.00;0.62;0.00;0.00;0.62;4.30;2.30;;;19.20;24.40;;;;;;2249126;61;20381;-59
2022/02/12 05:11:35;0.00;0.00;0.62;0.00;0.00;0.62;4.80;2.50;;;19.20;24.40;;;;;;2249612;61;20506;-58
2022/02/12 05:14:20;0.00;0.00;0.62;0.00;0.00;0.62;2.60;1.80;;;19.20;24.40;;;;;;2249596;61;20393;-59
2022/02/12 05:17:04;0.00;0.00;0.62;0.00;0.00;0.62;2.77;1.90;;;19.20;24.40;;;;;;2248869;61;20360;-59
2022/02/12 05:19:49;0.00;0.00;0.62;0.00;0.00;0.62;2.90;2.23;;;19.10;24.40;;;;;;2249454;61;20388;-60
2022/02/12 05:22:33;0.00;0.00;0.62;0.00;0.00;0.62;4.10;2.17;;;19.10;24.40;;;;;;2249664;61;20397;-60
2022/02/12 05:25:20;0.00;0.00;0.62;0.00;0.00;0.62;3.53;2.20;;;19.10;24.30;;;;;;2248919;61;20728;-60
2022/02/12 05:28:04;0.00;0.00;0.62;0.00;0.00;0.62;3.60;2.20;;;19.00;24.30;;;;;;2249448;61;20609;-60
2022/02/12 05:30:49;0.00;0.00;0.62;0.00;0.00;0.62;5.90;2.07;;;19.00;24.30;;;;;;2249127;61;20408;-60
2022/02/12 05:33:37;0.00;0.00;0.62;0.00;0.00;0.62;4.00;2.70;;;19.00;24.30;;;;;;2249231;61;20404;-60
2022/02/12 05:36:22;0.00;0.00;0.62;0.00;0.00;0.62;4.33;2.50;;;19.00;24.40;;;;;;2249619;61;20434;-60
2022/02/12 05:39:09;0.00;0.00;0.62;0.00;0.00;0.62;4.23;2.23;;;19.00;24.40;;;;;;2248667;61;20448;-60
2022/02/12 05:41:55;0.00;0.00;0.62;0.00;0.00;0.62;3.97;2.50;;;18.90;24.30;;;;;;2249818;61;20365;-60
2022/02/12 05:44:40;0.00;0.00;0.62;0.00;0.00;0.62;2.50;1.90;;;18.90;24.30;;;;;;2249615;61;20732;-60
2022/02/12 05:47:24;0.00;0.00;0.62;0.00;0.00;0.62;4.50;2.63;;;18.90;24.30;;;;;;2248669;61;20416;-59
2022/02/12 05:50:10;0.00;0.00;0.62;0.00;0.00;0.62;3.87;1.83;;;18.90;24.30;;;;;;2249549;61;20359;-60
2022/02/12 05:52:57;0.00;0.00;0.62;0.00;0.00;0.62;5.27;2.30;;;18.90;24.30;;;;;;2249099;61;20359;-58
2022/02/12 05:55:41;0.00;0.00;0.62;0.00;0.00;0.62;4.23;2.70;;;18.90;24.30;;;;;;2249470;61;20674;-58
2022/02/12 05:58:27;0.00;0.00;0.62;0.00;0.00;0.62;4.13;2.33;;;18.90;24.30;;;;;;2249403;61;20425;-60
2022/02/12 06:01:12;0.00;0.00;0.62;0.00;0.00;0.62;5.00;2.20;;;18.80;24.30;;;;;;2248769;61;20473;-60
2022/02/12 06:03:56;0.00;0.00;0.62;0.00;0.00;0.62;3.07;1.90;;;18.80;24.20;;;;;;2249897;61;20397;-60
2022/02/12 06:06:41;0.00;0.00;0.62;0.00;0.00;0.62;4.20;2.70;;;18.80;24.20;;;;;;2249458;61;20367;-60
2022/02/12 06:09:25;0.00;0.00;0.62;0.00;0.00;0.62;5.63;3.10;;;18.80;24.20;;;;;;2248678;61;20380;-59
2022/02/12 06:12:10;0.00;0.00;0.62;0.00;0.00;0.62;3.63;1.80;;;18.70;24.00;;;;;;2249490;61;20380;-59
2022/02/12 06:14:55;0.00;0.00;0.62;0.00;0.00;0.62;4.23;2.33;;;18.70;23.90;;;;;;2248855;61;20365;-58
2022/02/12 06:17:40;0.00;0.00;0.62;0.00;0.00;0.62;3.60;2.03;;;18.60;23.90;;;;;;2249290;61;20618;-59
2022/02/12 06:20:24;0.00;0.00;0.62;0.00;0.00;0.62;4.10;2.20;;;18.60;24.00;;;;;;2249188;61;20393;-59
2022/02/12 06:23:09;0.00;0.00;0.62;0.00;0.00;0.62;4.30;2.30;;;18.60;24.00;;;;;;2248689;61;20367;-58
2022/02/12 06:25:54;0.00;0.00;0.62;0.00;0.00;0.62;4.60;2.53;;;18.60;24.00;;;;;;2249788;61;20433;-60
2022/02/12 06:28:38;0.00;0.00;0.62;0.00;0.00;0.62;3.40;2.23;;;18.50;24.00;;;;;;2249108;61;20379;-60
2022/02/12 06:31:24;0.00;0.00;0.62;0.00;0.00;0.62;4.33;1.70;;;18.50;24.00;;;;;;2249230;61;20365;-60
2022/02/12 06:34:09;0.00;0.00;0.62;0.00;0.00;0.62;3.10;2.03;;;18.50;24.00;;;;;;2250302;61;20431;-59
2022/02/12 06:36:53;0.00;0.00;0.62;0.00;0.00;0.62;3.57;2.13;;;18.50;24.10;;;;;;2249971;61;20449;-58
2022/02/12 06:39:38;0.00;0.00;0.62;0.00;0.00;0.62;4.77;2.07;;;18.50;24.10;;;;;;2250027;61;20388;-60
2022/02/12 06:42:23;0.00;0.00;0.62;0.00;0.00;0.62;3.00;2.30;;;18.50;24.10;;;;;;2250138;61;20870;-60
2022/02/12 06:45:08;0.00;0.00;0.62;0.00;0.00;0.62;4.60;2.20;;;18.40;24.10;;;;;;2249444;61;20443;-59
2022/02/12 06:47:55;0.00;0.00;0.62;0.00;0.00;0.62;3.70;2.50;;;18.40;24.10;;;;;;2250184;61;20400;-60
2022/02/12 06:50:40;0.00;0.00;0.62;0.00;0.00;0.62;4.27;2.67;;;18.40;24.10;;;;;;2249967;61;20360;-60
2022/02/12 06:53:24;0.00;0.00;0.62;0.00;0.00;0.62;2.47;1.70;;;18.40;24.10;;;;;;2249272;61;20404;-60
2022/02/12 06:56:09;0.00;0.00;0.62;0.00;0.00;0.62;2.57;2.00;;;18.40;24.10;;;;;;2250286;61;20353;-60
2022/02/12 06:58:53;0.00;0.00;0.62;0.00;0.00;0.62;3.20;2.17;;;18.40;24.10;;;;;;2249779;61;20396;-60
2022/02/12 07:01:38;0.00;0.00;0.62;0.00;0.00;0.62;5.47;2.77;;;18.40;24.10;;;;;;2250050;61;20460;-60
2022/02/12 07:04:28;0.00;0.00;0.62;0.00;0.00;0.62;5.10;2.77;;;18.40;24.10;;;;;;2250010;61;20364;-60
2022/02/12 07:07:13;0.00;0.00;0.62;0.00;0.00;0.62;3.90;2.13;;;18.30;24.00;;;;;;2249678;61;20365;-58
2022/02/12 07:09:58;0.00;0.00;0.62;0.00;0.00;0.62;3.40;2.30;;;18.30;24.00;;;;;;2250226;61;20407;-59
2022/02/12 07:12:43;0.00;0.00;0.62;0.00;0.00;0.62;5.40;2.30;;;18.30;24.00;;;;;;2249982;61;20364;-59
2022/02/12 07:15:28;0.00;0.00;0.62;0.00;0.00;0.62;7.27;2.53;;;18.30;24.10;;;;;;2249205;61;20412;-59
2022/02/12 07:18:12;0.00;0.00;0.62;0.00;0.00;0.62;4.13;2.10;;;18.30;24.10;;;;;;2250132;61;20387;-59
2022/02/12 07:20:58;0.00;0.00;0.62;0.00;0.00;0.62;3.37;1.83;;;18.30;24.10;;;;;;2250079;61;20364;-60
2022/02/12 07:23:43;0.00;0.00;0.62;0.00;0.00;0.62;5.17;3.20;;;18.30;24.10;;;;;;2249858;61;20618;-60
2022/02/12 07:26:28;0.00;0.00;0.62;0.00;0.00;0.62;4.43;2.97;;;18.30;24.10;;;;;;2250129;61;20359;-60
2022/02/12 07:29:12;0.00;0.00;0.62;0.00;0.00;0.62;2.90;2.10;;;18.30;24.20;;;;;;2249381;61;20385;-60
2022/02/12 07:31:57;0.00;0.00;0.62;0.00;0.00;0.62;4.03;2.17;;;18.20;24.10;;;;;;2250198;61;20677;-60
2022/02/12 07:34:41;0.00;0.00;0.62;0.00;0.00;0.62;4.10;2.23;;;18.20;24.10;;;;;;2249894;61;20380;-60
2022/02/12 07:37:09;0.00;0.00;0.62;0.00;0.00;0.62;3.30;1.83;;;18.20;24.10;;;;;;2249246;61;20353;-60
2022/02/12 07:39:54;0.00;0.00;0.62;0.00;0.00;0.62;3.17;2.30;;;18.20;24.10;;;;;;2250014;61;20401;-60
2022/02/12 07:42:38;0.00;0.00;0.62;0.00;0.00;0.62;3.50;2.00;;;18.20;24.10;;;;;;2249811;61;20720;-60
2022/02/12 07:45:24;0.00;0.00;0.62;0.00;0.00;0.62;3.40;2.00;;;18.20;24.10;;;;;;2249297;61;20360;-60
2022/02/12 07:48:09;0.00;0.00;0.62;0.00;0.00;0.62;4.30;2.17;;;18.20;24.10;;;;;;2249931;61;20424;-60
2022/02/12 07:50:54;0.00;0.00;0.62;0.00;0.00;0.62;3.33;2.20;;;18.20;24.10;;;;;;2249910;61;20364;-60
2022/02/12 07:53:40;0.00;0.00;0.62;0.00;0.00;0.62;4.97;2.20;;;18.20;24.10;;;;;;2249684;61;20404;-59
2022/02/12 07:56:25;0.00;0.00;0.62;0.00;0.00;0.62;5.43;2.70;;;18.10;23.90;;;;;;2249746;61;20972;-58
2022/02/12 07:59:09;0.00;0.00;0.62;0.00;0.00;0.62;2.80;2.00;;;18.10;23.90;;;;;;2248909;61;20420;-60
2022/02/12 08:01:54;0.00;0.00;0.62;0.00;0.00;0.62;5.50;2.50;;;18.10;23.90;;;;;;2250068;61;20352;-60
2022/02/12 08:04:38;0.00;0.00;0.62;0.00;0.00;0.62;5.20;2.63;;;18.10;23.90;;;;;;2249763;61;20357;-59
2022/02/12 08:07:29;0.00;0.00;0.62;0.00;0.00;0.62;3.23;1.90;;;18.10;23.90;;;;;;2248953;61;20368;-61
2022/02/12 08:13:20;0.00;0.00;0.62;0.00;0.00;0.62;5.67;2.37;;;18.00;23.90;;;;;;2249280;61;20365;-61
2022/02/12 08:16:06;0.00;0.00;0.62;0.00;0.00;0.62;2.80;2.10;;;18.00;24.00;;;;;;2249750;61;20364;-61
2022/02/12 08:18:50;0.00;0.00;0.62;0.00;0.00;0.62;3.67;2.20;;;18.00;24.00;;;;;;2249624;61;20609;-60
2022/02/12 08:21:35;0.00;0.00;0.62;0.00;0.00;0.62;5.40;2.70;;;18.00;24.10;;;;;;2248656;61;20409;-59
2022/02/12 08:24:19;0.00;0.00;0.62;0.00;0.00;0.62;2.20;1.50;;;18.00;24.10;;;;;;2249921;61;20360;-58
2022/02/12 08:27:06;0.00;0.00;0.62;0.00;0.00;0.62;2.93;2.10;;;18.00;24.10;;;;;;2249784;61;20368;-59
2022/02/12 08:29:51;0.00;0.00;0.62;0.00;0.00;0.62;3.50;1.93;;;18.00;24.10;;;;;;2248929;61;20381;-60
2022/02/12 08:32:41;0.00;0.00;0.62;0.00;0.00;0.62;3.07;1.90;;;18.00;24.10;;;;;;2250029;61;20365;-58
2022/02/12 08:35:26;0.00;0.00;0.62;0.00;0.00;0.62;3.77;3.00;;;18.00;24.10;;;;;;2251490;61;20400;-59
2022/02/12 08:38:11;0.00;0.00;0.62;0.00;0.00;0.62;5.50;2.20;;;18.00;24.20;;;;;;2245560;61;20457;-60
2022/02/12 08:40:56;0.00;0.00;0.62;0.00;0.00;0.62;4.43;3.00;;;18.00;24.20;;;;;;2245697;61;20365;-60
2022/02/12 08:43:43;0.00;0.00;0.62;0.00;0.00;0.62;4.67;2.50;;;18.10;24.20;;;;;;2244864;61;20361;-59
2022/02/12 08:46:28;0.00;0.00;0.62;0.00;0.00;0.62;5.20;2.90;;;18.00;24.10;;;;;;2245990;61;20785;-60
2022/02/12 08:49:16;0.00;0.00;0.62;0.00;0.00;0.62;5.63;2.67;;;18.00;24.10;;;;;;2245622;61;20757;-59
2022/02/12 08:52:01;0.00;0.00;0.62;0.00;0.00;0.62;5.50;3.20;;;18.10;24.20;;;;;;2244898;61;20806;-59
2022/02/12 08:54:46;0.00;0.00;0.62;0.00;0.00;0.62;4.50;3.03;;;18.10;24.20;;;;;;2245889;61;20349;-59
2022/02/12 08:57:30;0.00;0.00;0.62;0.00;0.00;0.62;4.57;3.03;;;18.10;24.20;;;;;;2245420;61;20717;-59
2022/02/12 08:59:57;0.00;0.00;0.62;0.00;0.00;0.62;4.03;2.77;;;18.10;24.10;;;;;;2245177;61;20390;-59
2022/02/12 09:02:44;0.00;0.00;0.62;0.00;0.00;0.62;4.23;2.53;;;18.10;24.00;;;;;;2245869;61;20565;-59
2022/02/12 09:05:28;0.00;0.00;0.62;0.00;0.00;0.62;5.57;2.50;;;18.10;23.90;;;;;;2245076;61;20366;-59
2022/02/12 09:08:13;0.00;0.00;0.62;0.00;0.00;0.62;5.27;2.60;;;18.10;23.80;;;;;;2245838;61;20454;-59
2022/02/12 09:10:57;0.00;0.00;0.62;0.00;0.00;0.62;3.70;2.30;;;18.10;23.70;;;;;;2245543;61;20373;-59
2022/02/12 09:13:42;0.00;0.00;0.62;0.00;0.00;0.62;4.27;2.10;;;18.10;23.60;;;;;;2244734;61;20753;-59
2022/02/12 09:16:28;0.00;0.00;0.62;0.00;0.00;0.62;6.60;2.73;;;18.10;23.50;;;;;;2246097;61;20405;-60
2022/02/12 09:19:12;0.00;0.00;0.62;0.00;0.00;0.62;3.33;2.07;;;18.10;23.50;;;;;;2245456;61;20402;-61
2022/02/12 09:21:57;0.00;0.00;0.62;0.00;0.00;0.62;4.33;2.40;;;18.10;23.60;;;;;;2244923;61;20422;-59
2022/02/12 09:24:42;0.00;0.00;0.62;0.00;0.00;0.62;4.10;2.50;;;18.10;23.60;;;;;;2245616;61;20365;-61
2022/02/12 09:27:27;0.00;0.00;0.62;0.00;0.00;0.62;4.60;2.30;;;18.10;23.50;;;;;;2244900;61;20398;-58
2022/02/12 09:30:12;0.00;0.00;0.62;0.00;0.00;0.62;3.53;2.07;;;18.10;23.40;;;;;;2245602;61;20370;-61
2022/02/12 09:32:58;0.00;0.00;0.62;0.00;0.00;0.62;4.87;2.03;;;18.10;23.40;;;;;;2245485;61;20714;-58
2022/02/12 09:35:43;0.00;0.00;0.62;0.00;0.00;0.62;4.10;2.10;;;18.10;23.40;;;;;;2244650;61;20440;-61
2022/02/12 09:38:30;0.00;0.00;0.62;0.00;0.00;0.62;3.93;2.03;;;18.10;23.30;;;;;;2245773;61;20381;-60
2022/02/12 09:41:20;0.00;0.00;0.62;0.00;0.00;0.62;2.43;1.57;;;18.10;23.30;;;;;;2245413;61;20414;-58
2022/02/12 09:44:05;0.00;0.00;0.62;0.00;0.00;0.62;4.37;2.00;;;18.20;23.30;;;;;;2244693;61;20410;-58
2022/02/12 09:47:33;0.00;0.00;0.62;0.00;0.00;0.62;4.80;2.47;;;18.20;23.10;;;;;;2245413;61;20871;-58
2022/02/12 09:50:22;0.00;0.00;0.62;0.00;0.00;0.62;4.47;1.80;;;18.20;22.90;;;;;;2244583;61;20366;-59
2022/02/12 09:53:06;0.00;0.00;0.62;0.00;0.00;0.62;4.40;2.10;;;18.20;22.80;;;;;;2245828;61;20494;-61
2022/02/12 09:55:50;0.00;0.00;0.62;0.00;0.00;0.62;4.07;2.27;;;18.20;23.00;;;;;;2245319;61;20393;-59
2022/02/12 09:58:35;0.00;0.00;0.62;0.00;0.00;0.62;3.17;1.77;;;18.20;23.20;;;;;;2244579;61;20392;-61
2022/02/12 10:01:20;0.00;0.00;0.62;0.00;0.00;0.62;7.17;1.97;;;18.20;23.40;;;;;;2245496;61;20444;-59
2022/02/12 10:04:14;0.00;0.00;0.62;0.00;0.00;0.62;4.47;1.83;;;18.30;23.60;;;;;;2245515;61;20395;-59
2022/02/12 10:07:00;0.00;0.00;0.62;0.00;0.00;0.62;4.23;1.70;;;18.30;23.80;;;;;;2245579;61;20394;-61
2022/02/12 10:09:44;0.00;0.00;0.62;0.00;0.00;0.62;4.13;2.07;;;18.30;23.80;;;;;;2245244;61;20749;-59
2022/02/12 10:12:29;0.00;0.00;0.62;0.00;0.00;0.62;3.43;1.70;;;18.40;23.90;;;;;;2244703;61;20430;-60
2022/02/12 10:15:24;0.00;0.00;0.62;0.00;0.00;0.62;3.97;1.47;;;18.40;24.00;;;;;;2245520;61;20364;-60
2022/02/12 10:18:10;0.00;0.00;0.62;0.00;0.00;0.62;3.40;1.70;;;18.50;24.10;;;;;;2245286;61;20450;-60
2022/02/12 10:20:57;0.00;0.00;0.62;0.00;0.00;0.62;2.47;1.67;;;18.50;24.10;;;;;;2244713;61;20350;-59
2022/02/12 10:23:44;0.00;0.00;0.62;0.00;0.00;0.62;2.80;1.50;;;18.50;24.20;;;;;;2245497;61;20366;-61
2022/02/12 10:26:31;0.00;0.00;0.62;0.00;0.00;0.62;2.60;1.50;;;18.60;24.30;;;;;;2244981;61;20362;-59
2022/02/12 10:29:18;0.00;0.00;0.62;0.00;0.00;0.62;2.10;1.40;;;18.60;24.30;;;;;;2245322;61;20393;-61
2022/02/12 10:32:03;0.00;0.00;0.62;0.00;0.00;0.62;2.77;1.57;;;18.70;24.40;;;;;;2245332;61;20761;-60
2022/02/12 10:34:50;0.00;0.00;0.62;0.00;0.00;0.62;2.60;1.20;;;18.70;24.40;;;;;;2244537;61;20714;-61
2022/02/12 10:37:41;0.00;0.00;0.62;0.00;0.00;0.62;3.43;1.60;;;18.80;24.50;;;;;;2245398;61;20706;-60
2022/02/12 10:40:29;0.00;0.00;0.62;0.00;0.00;0.62;2.50;1.40;;;18.80;24.50;;;;;;2245383;61;20393;-61
2022/02/12 10:43:14;0.00;0.00;0.62;0.00;0.00;0.62;2.63;1.30;;;18.90;24.60;;;;;;2244707;61;20370;-59
2022/02/12 10:46:00;0.00;0.00;0.62;0.00;0.00;0.62;2.50;1.60;;;18.90;24.60;;;;;;2245483;61;20405;-59
2022/02/12 10:48:48;0.00;0.00;0.62;0.00;0.00;0.62;2.57;1.30;;;18.90;24.60;;;;;;2244979;61;20437;-60
2022/02/12 10:51:43;0.00;0.00;0.62;0.00;0.00;0.62;2.30;1.57;;;19.00;24.70;;;;;;2245160;61;20373;-60
2022/02/12 10:54:38;0.00;0.00;0.62;0.00;0.00;0.62;2.67;1.40;;;19.00;24.70;;;;;;2245323;61;20649;-61
2022/02/12 10:57:29;0.00;0.00;0.62;0.00;0.00;0.62;2.53;1.70;;;19.10;24.70;;;;;;2244294;61;20723;-61
2022/02/12 11:00:16;0.00;0.00;0.62;0.00;0.00;0.62;1.57;1.00;;;19.10;24.70;;;;;;2245507;61;20510;-61
2022/02/12 11:03:05;0.00;0.00;0.62;0.00;0.00;0.62;2.33;1.10;;;19.20;24.80;;;;;;2245443;61;20365;-61